Share

Reynolds, ND

Cooperstown (KS32) Elev 1424 ft | 47.42 °N, 98.11 °W | Change Station
Active Advisory: Flood Warning

Current weather conditions updated 3 minutes ago

Clear
Clear
37 °F
Feels Like 37 °F
N
0
Wind Variable Wind from North
Sunrise 6:35 AM
Sunset 8:21 PM
Moon Waning Gibbous

Today is forecast to be nearly the same temperature as yesterday.

Pressure 30.29 in
Visibility 10.0 miles
Clouds Clear
Dew Point 9 °F
Humidity 30%
Rainfall 0.00 in
Snow Depth Not available.
UV 8 out of 16
Pollen 8.00 out of 12
Air Quality Not available.
Flu Activity Sporadic
METAR KS32 171855Z AUTO 00000KT 10SM CLR 03/M13 A3029 RMK AO2

More Conditions Fewer Conditions

Pressure 30.29 in
Visibility 10.0 miles
Clouds Clear
Dew Point 9 °F
Humidity 30%
Rainfall 0.00 in
Snow Depth Not available.
UV 8 out of 16
Pollen 8.00 out of 12
Air Quality Not available.
Flu Activity Sporadic
METAR KS32 171855Z AUTO 00000KT 10SM CLR 03/M13 A3029 RMK AO2

More Conditions Fewer Conditions

10-Day Forecast

Almanac

Astronomy

Apr. 17, 2014 Rise Set
Actual Time 6:35 AM CDT 8:21 PM CDT
Civil Twilight 6:03 AM CDT 8:53 PM CDT
Nautical Twilight 5:23 AM CDT 9:33 PM CDT
Astronomical Twilight 4:39 AM CDT 10:17 PM CDT
Moon 11:17 PM CDT 8:00 AM CDT
Length of Visible Light 14h 50m
Length of Day
13h 45m
Tomorrow will be 3m 17s longer.
Waning Gibbous, 93% of the Moon is Illuminated
Today
Waning Gibbous
Apr 22
Last Quarter
Apr 29
New
May 6
First Quarter
May 14
Full

Today's Extremes

State Highs State Lows

Community

  • New Day
    New Day
  • Lake Michigan Sunrise
    Lake Michigan Sunrise
  • sunset from izmir, narlıdere
    sunset from izmir, narlıdere
  • oregon cherry
    oregon cherry
  • Sunset over the Bay
    Sunset over the Bay

WunderPhotos

Upload Photos

1,702,094 photos uploaded!

Nearby

Snow Depth

Station Depth Elevation
No new snow has been reported.

Coastal Water Temperatures

Place Temperature
No Stations Reporting

Earthquake Activity

City Distance Mag. Time & Date
No recent earthquake activity has been reported nearby.
Minimum magnitude displayed is 2.5.

Nearby Weather Stations

Station Location Temp. Windchill Dew Point Humidity Wind Precip. Elev Updated Type
Grand Forks, ND 33.7 °F 29 °F 23 °F 60% SE  at  5.4 mph 0.00 in / hr 827 ft 11:28 AM CDT Rapid Fire

Show More Stations Show Fewer Stations

What do you think?

We're not finished. Please let us know what you like, what you don't like, and what you are still missing.